ePrivacy and GPDR Cookie Consent by Cookie Consent
EmailTwitter


Surface observations / United States / KJFK (74486)

Regions: Quebec | Canada | USA | Europe | France | UK | Elsewhere
Station
Display
Info & Location for KJFK (74486) | Help decoding METAR

Weather Conditions observed on 2021/12/09 at 00:40 UTC at NEW YORK/JF KENN, NY (KJFK)

Sky conditions: overcast.

Obstruction(s) to Vision: light rain.

Temperature: 3.0 Celsius.

Dewpoint: 1.0 Celsius.

Relative Humidity: 87%

Windchill Factor -1.

Winds: North-northwest at 15 km/h or 8 knots.

Altimeter Setting (QNH): 101.22 kilopascals or 29.89 inches of mercury.

Horizontal visibility: 10.00 statute miles or 16.00 kilometers.

Height of the Ceiling: 762 metres ( 2500 feet ).

There was 0.00 millimeters of precipitation in the past 6 hours.

Coded METAR:

KJFK 090040Z 34008KT 10SM -RA SCT018 BKN025 OVC039 03/01 A2989 RMK AO2 RAB19

P0000 T00330006=